Time;durP1;ratioP1;P1;durP2;ratioP2;P2;SDS_P1;SDS_P2;PMS_P1;PMS_P2;Temp;Humidity;BMP_temperature;BMP_pressure;BME280_temperature;BME280_humidity;BME280_pressure;Samples;Min_cycle;Max_cycle;Signal;HPM_P1;HPM_P2
2022/04/06 00:02:06;;;;;;;20.13;15.55;;;;;;;11.76;55.74;99412.78;4994984;28;20121;-74
2022/04/06 00:04:33;;;;;;;22.75;16.77;;;;;;;12.20;54.44;99409.63;4994234;28;20051;-73
2022/04/06 00:06:59;;;;;;;20.83;15.35;;;;;;;11.27;57.09;99403.81;4993481;28;20042;-73
2022/04/06 00:09:26;;;;;;;19.13;14.43;;;;;;;11.25;57.31;99400.53;5002072;28;20121;-73
2022/04/06 00:11:52;;;;;;;20.50;14.63;;;;;;;11.44;57.28;99409.72;4994577;28;20081;-73
2022/04/06 00:14:19;;;;;;;20.45;14.70;;;;;;;11.50;57.08;99405.41;4994873;28;20066;-74
2022/04/06 00:16:46;;;;;;;23.15;17.48;;;;;;;11.77;56.25;99412.59;4993977;28;20050;-73
2022/04/06 00:19:12;;;;;;;36.92;24.15;;;;;;;11.48;57.31;99410.13;4994704;28;20463;-73
2022/04/06 00:21:39;;;;;;;19.63;14.10;;;;;;;11.63;56.78;99405.47;4994452;28;20509;-74
2022/04/06 00:24:05;;;;;;;21.00;14.48;;;;;;;11.72;56.98;99409.69;4994170;28;20085;-72
2022/04/06 00:26:32;;;;;;;19.95;14.45;;;;;;;11.83;56.39;99406.44;4994234;28;20138;-73
2022/04/06 00:28:58;;;;;;;21.67;15.85;;;;;;;12.35;54.82;99407.63;4995098;28;20485;-73
2022/04/06 00:31:25;;;;;;;22.95;15.65;;;;;;;11.72;56.79;99406.16;4994886;28;20042;-73
2022/04/06 00:33:51;;;;;;;22.80;17.00;;;;;;;11.91;55.92;99411.63;4993672;28;20053;-72
2022/04/06 00:36:18;;;;;;;26.48;17.73;;;;;;;11.37;57.61;99409.66;4990782;28;20046;-74
2022/04/06 00:38:44;;;;;;;27.40;18.63;;;;;;;11.80;56.73;99411.38;4994689;28;20077;-74
2022/04/06 00:41:11;;;;;;;24.70;18.42;;;;;;;11.51;57.16;99415.13;4992476;28;20056;-73
2022/04/06 00:43:38;;;;;;;29.38;18.85;;;;;;;11.85;56.42;99415.09;4993067;28;20050;-74
2022/04/06 00:46:04;;;;;;;21.85;17.83;;;;;;;12.21;55.76;99413.16;4993842;28;20070;-74
2022/04/06 00:48:31;;;;;;;22.42;17.70;;;;;;;12.23;55.25;99417.31;4993789;28;20050;-73
2022/04/06 00:50:57;;;;;;;30.15;18.52;;;;;;;11.30;57.77;99411.47;4986989;28;20054;-73
2022/04/06 00:53:24;;;;;;;26.50;18.17;;;;;;;10.66;59.16;99409.78;4993707;28;20432;-74
2022/04/06 00:55:52;;;;;;;23.23;16.85;;;;;;;11.11;58.25;99412.19;4993370;28;20053;-73
2022/04/06 00:58:19;;;;;;;23.75;17.02;;;;;;;11.16;58.43;99409.75;4993239;28;20402;-73
2022/04/06 01:00:45;;;;;;;24.90;18.35;;;;;;;11.28;57.90;99413.56;4993596;28;20127;-74
2022/04/06 01:03:12;;;;;;;25.95;18.70;;;;;;;11.50;57.05;99405.41;4989208;28;20117;-74
2022/04/06 01:09:20;;;;;;;23.88;18.15;;;;;;;11.82;56.21;99399.38;4992984;28;20498;-73
2022/04/06 01:11:49;;;;;;;24.20;18.40;;;;;;;11.45;57.07;99393.41;4993780;28;20052;-73
2022/04/06 01:14:17;;;;;;;24.70;17.52;;;;;;;11.56;57.52;99396.56;4993410;28;20131;-73
2022/04/06 01:16:57;;;;;;;22.65;17.90;;;;;;;11.73;56.35;99405.16;4993353;28;20141;-74
2022/04/06 01:19:29;;;;;;;25.85;18.02;;;;;;;11.91;56.15;99398.19;4994083;28;20046;-73
2022/04/06 01:21:55;;;;;;;24.30;18.42;;;;;;;12.01;55.61;99391.63;4993492;28;20052;-74
2022/04/06 01:24:22;;;;;;;23.67;18.13;;;;;;;12.15;54.99;99387.94;4991089;28;20046;-74
2022/04/06 01:26:49;;;;;;;23.27;17.55;;;;;;;11.91;55.85;99390.13;4992857;28;20505;-74
2022/04/06 01:29:15;;;;;;;23.35;18.10;;;;;;;11.56;56.91;99393.88;4992949;28;20064;-73
2022/04/06 01:31:42;;;;;;;23.38;17.85;;;;;;;12.31;54.82;99395.59;4993154;28;20050;-74
2022/04/06 01:34:08;;;;;;;23.58;18.25;;;;;;;12.17;55.05;99396.59;4992737;28;20046;-73
2022/04/06 01:36:34;;;;;;;26.33;19.50;;;;;;;11.53;56.74;99400.47;4992726;28;20085;-73
2022/04/06 01:39:01;;;;;;;22.75;17.70;;;;;;;11.33;57.37;99396.84;4992707;28;20129;-73
2022/04/06 01:41:34;;;;;;;23.75;18.38;;;;;;;12.01;55.80;99391.63;4993999;28;20058;-74
2022/04/06 01:44:01;;;;;;;24.15;17.95;;;;;;;11.82;56.26;99394.00;4993261;28;20555;-74
2022/04/06 01:46:27;;;;;;;24.13;18.58;;;;;;;11.95;55.82;99389.72;4993779;28;20076;-73
2022/04/06 01:54:24;;;;;;;25.80;18.58;;;;;;;11.83;56.58;99395.69;4992867;28;20126;-73
2022/04/06 01:56:51;;;;;;;24.45;18.33;;;;;;;11.72;56.61;99404.31;4993513;28;20046;-74
2022/04/06 01:59:17;;;;;;;26.10;18.38;;;;;;;11.62;57.10;99390.38;4992346;28;20145;-73
2022/04/06 02:01:48;;;;;;;27.00;19.05;;;;;;;11.81;56.24;99395.03;4992525;28;20133;-73
2022/04/06 02:04:15;;;;;;;25.23;18.75;;;;;;;11.20;58.24;99394.91;4992404;28;20130;-72
2022/04/06 02:06:42;;;;;;;26.98;18.70;;;;;;;11.46;57.31;99400.44;4991063;28;20057;-73
2022/04/06 02:09:13;;;;;;;23.60;18.52;;;;;;;12.19;55.28;99389.16;4991967;28;20057;-74
2022/04/06 02:11:41;;;;;;;23.58;18.33;;;;;;;11.93;56.11;99384.53;4991089;28;20111;-74
2022/04/06 02:14:08;;;;;;;23.58;18.17;;;;;;;11.81;56.25;99389.66;4990850;28;20054;-74
2022/04/06 02:16:35;;;;;;;23.30;18.63;;;;;;;12.17;55.20;99385.84;4992721;28;20072;-74
2022/04/06 02:19:02;;;;;;;25.90;19.30;;;;;;;11.27;57.41;99385.03;4991730;28;20061;-74
2022/04/06 02:21:29;;;;;;;24.98;19.15;;;;;;;11.39;57.72;99377.25;4997335;28;20052;-72
2022/04/06 02:23:55;;;;;;;24.77;19.00;;;;;;;11.82;56.15;99377.88;4992387;28;20481;-73
2022/04/06 02:26:22;;;;;;;23.27;18.63;;;;;;;12.03;55.73;99379.59;4991793;28;20046;-73
2022/04/06 02:28:48;;;;;;;24.42;19.35;;;;;;;11.49;56.77;99377.72;4991724;28;20053;-74
2022/04/06 02:31:14;;;;;;;26.23;18.23;;;;;;;11.80;55.97;99393.41;4992833;28;20042;-72
2022/04/06 02:33:41;;;;;;;26.45;19.25;;;;;;;11.66;56.75;99389.00;4991349;28;20042;-72
2022/04/06 02:36:08;;;;;;;26.70;19.23;;;;;;;11.50;56.84;99381.25;4991740;28;20117;-73
2022/04/06 02:38:38;;;;;;;24.23;18.42;;;;;;;11.71;56.77;99381.16;4993335;28;20082;-73
2022/04/06 02:41:06;;;;;;;23.77;18.08;;;;;;;11.45;57.24;99382.66;4992501;28;20138;-73
2022/04/06 02:43:32;;;;;;;24.02;18.88;;;;;;;11.24;57.73;99372.03;4992883;28;20486;-74
2022/04/06 02:45:59;;;;;;;24.58;18.77;;;;;;;11.55;56.68;99370.72;4996180;28;20129;-74
2022/04/06 02:48:26;;;;;;;24.40;17.75;;;;;;;11.31;56.97;99375.56;4992267;28;20046;-73
2022/04/06 02:50:53;;;;;;;24.58;17.83;;;;;;;11.48;56.66;99375.22;4991772;28;20105;-73
2022/04/06 02:53:20;;;;;;;24.75;17.90;;;;;;;11.56;56.34;99377.75;4992712;28;20097;-73
2022/04/06 02:55:48;;;;;;;23.40;17.65;;;;;;;11.75;55.95;99368.16;4986102;28;20498;-73
2022/04/06 02:58:15;;;;;;;25.13;18.23;;;;;;;11.65;56.25;99376.53;4991061;28;20403;-74
2022/04/06 03:00:41;;;;;;;22.33;18.45;;;;;;;11.68;56.06;99370.81;4992709;28;20125;-74
2022/04/06 03:03:08;;;;;;;23.38;17.08;;;;;;;11.91;55.58;99368.63;4991285;28;20048;-73
2022/04/06 03:05:34;;;;;;;21.48;17.40;;;;;;;11.25;57.13;99376.34;4988732;28;20048;-73
2022/04/06 03:08:01;;;;;;;22.33;17.40;;;;;;;11.48;56.38;99367.16;4992041;28;20129;-74
2022/04/06 03:10:28;;;;;;;21.33;16.23;;;;;;;11.18;57.13;99370.13;4991493;28;20538;-74
2022/04/06 03:12:54;;;;;;;20.42;15.95;;;;;;;11.39;56.66;99370.03;4991673;28;20062;-74
2022/04/06 03:15:26;;;;;;;24.33;16.60;;;;;;;11.61;56.42;99375.28;4992203;28;20456;-74
2022/04/06 03:17:52;;;;;;;18.10;14.85;;;;;;;11.22;56.62;99376.75;4992535;28;20077;-74
2022/04/06 03:20:20;;;;;;;21.02;14.70;;;;;;;11.74;54.98;99380.75;4991657;28;20070;-74
2022/04/06 03:22:46;;;;;;;21.70;15.27;;;;;;;11.89;54.86;99377.91;4989550;28;20126;-74
2022/04/06 03:25:13;;;;;;;24.33;14.10;;;;;;;11.85;55.33;99371.28;4992392;28;20436;-74
2022/04/06 03:27:39;;;;;;;20.02;15.40;;;;;;;11.42;56.11;99376.88;4992116;28;20068;-74
2022/04/06 03:30:10;;;;;;;22.88;14.85;;;;;;;11.78;54.85;99378.50;4992251;28;20129;-74
2022/04/06 03:32:37;;;;;;;20.20;13.93;;;;;;;11.31;56.35;99377.41;4985156;28;20457;-76
2022/04/06 03:35:06;;;;;;;19.27;12.55;;;;;;;11.18;56.36;99381.69;4980284;28;20506;-75
2022/04/06 03:37:33;;;;;;;19.00;13.45;;;;;;;11.05;56.30;99383.44;4979018;28;20069;-75
2022/04/06 03:39:59;;;;;;;18.15;12.48;;;;;;;11.39;56.04;99380.78;4978708;28;20188;-75
2022/04/06 03:42:26;;;;;;;19.35;13.20;;;;;;;11.35;55.89;99384.06;4978467;28;20043;-75
2022/04/06 03:44:52;;;;;;;21.58;13.65;;;;;;;11.52;55.71;99384.53;4977150;28;20550;-75
2022/04/06 03:47:19;;;;;;;20.75;13.50;;;;;;;11.26;56.61;99388.75;4979855;28;20070;-76
2022/04/06 03:49:45;;;;;;;18.67;12.90;;;;;;;11.43;55.95;99376.66;4968557;28;20053;-76
2022/04/06 03:52:11;;;;;;;16.98;12.98;;;;;;;11.25;56.50;99383.59;4978209;28;20129;-75
2022/04/06 03:54:38;;;;;;;18.85;12.77;;;;;;;11.25;56.64;99384.41;4979517;28;20371;-75
2022/04/06 03:57:04;;;;;;;25.48;13.20;;;;;;;11.38;56.72;99392.56;4979114;28;20080;-75
2022/04/06 03:59:31;;;;;;;19.70;13.20;;;;;;;11.04;57.03;99387.16;4978578;28;20129;-75
2022/04/06 04:01:57;;;;;;;20.20;11.98;;;;;;;10.53;58.05;99382.00;4978032;28;20403;-75
2022/04/06 04:04:26;;;;;;;19.67;11.95;;;;;;;11.22;56.26;99380.25;4977524;28;20051;-75
2022/04/06 04:06:52;;;;;;;15.73;11.82;;;;;;;11.61;55.38;99386.88;4979753;28;20129;-75
2022/04/06 04:09:25;;;;;;;19.92;12.52;;;;;;;11.74;55.10;99388.00;4976229;28;20070;-76
2022/04/06 04:11:51;;;;;;;21.15;12.07;;;;;;;11.34;55.81;99391.25;4979779;28;20035;-76
2022/04/06 04:14:18;;;;;;;18.58;12.85;;;;;;;10.95;56.72;99381.09;4982294;28;20106;-73
2022/04/06 04:16:44;;;;;;;21.75;12.18;;;;;;;11.21;55.70;99383.97;4978940;28;20110;-73
2022/04/06 04:19:11;;;;;;;21.50;12.30;;;;;;;11.10;56.19;99381.00;4983344;28;20077;-73
2022/04/06 04:21:37;;;;;;;24.67;13.55;;;;;;;11.28;55.21;99397.44;4978283;28;20057;-73
2022/04/06 04:24:08;;;;;;;21.40;13.18;;;;;;;11.12;56.22;99387.00;4983082;28;20173;-73
2022/04/06 04:26:36;;;;;;;19.75;13.15;;;;;;;11.37;55.54;99395.41;4978667;28;20534;-73
2022/04/06 04:29:04;;;;;;;16.85;12.43;;;;;;;11.30;55.50;99391.88;4982973;28;20123;-73
2022/04/06 04:31:31;;;;;;;23.35;13.68;;;;;;;11.62;55.06;99398.44;4978665;28;20137;-73
2022/04/06 04:33:57;;;;;;;20.92;13.18;;;;;;;11.23;55.16;99405.25;4982879;28;20078;-73
2022/04/06 04:36:24;;;;;;;21.95;13.80;;;;;;;11.29;55.68;99404.47;4980198;28;20109;-73
2022/04/06 04:38:50;;;;;;;24.95;14.82;;;;;;;11.13;56.41;99405.59;4980844;28;20047;-73
2022/04/06 04:41:17;;;;;;;23.48;14.25;;;;;;;11.54;55.54;99406.66;4981283;28;20046;-73
2022/04/06 04:43:43;;;;;;;24.70;14.32;;;;;;;11.02;56.84;99399.94;4978645;28;20518;-73
2022/04/06 04:46:10;;;;;;;25.10;15.18;;;;;;;11.26;56.31;99407.53;4982321;28;20133;-73
2022/04/06 04:48:37;;;;;;;23.33;15.07;;;;;;;11.52;55.61;99406.88;4981811;28;20053;-74
2022/04/06 04:51:04;;;;;;;25.92;14.57;;;;;;;11.78;54.44;99406.19;4982610;28;20138;-74
2022/04/06 04:53:30;;;;;;;25.95;15.57;;;;;;;11.49;54.64;99404.59;4973628;28;20125;-74
2022/04/06 04:55:57;;;;;;;27.13;15.02;;;;;;;11.61;54.71;99411.03;4979353;28;20061;-73
2022/04/06 04:58:23;;;;;;;26.08;14.50;;;;;;;11.57;54.51;99409.78;4981959;28;20076;-73
2022/04/06 05:00:50;;;;;;;23.63;14.55;;;;;;;11.45;55.21;99414.91;4978312;28;20047;-74
2022/04/06 05:03:16;;;;;;;22.95;15.13;;;;;;;10.60;57.85;99409.72;4981259;28;20544;-74
2022/04/06 05:05:44;;;;;;;23.15;15.27;;;;;;;11.44;55.61;99423.97;4981993;28;20077;-74
2022/04/06 05:08:11;;;;;;;24.30;14.75;;;;;;;11.17;55.80;99416.75;4981500;28;20073;-74
2022/04/06 05:10:37;;;;;;;26.70;16.13;;;;;;;11.37;55.53;99416.91;4981231;28;20125;-74
2022/04/06 05:13:04;;;;;;;24.05;14.38;;;;;;;10.89;56.31;99416.75;4980684;28;20057;-74
2022/04/06 05:15:31;;;;;;;27.20;15.77;;;;;;;11.61;54.99;99416.41;4980606;28;20436;-74
2022/04/06 05:17:57;;;;;;;28.17;15.48;;;;;;;11.54;54.58;99428.16;4979420;28;20067;-74
2022/04/06 05:20:24;;;;;;;27.50;14.98;;;;;;;11.16;55.54;99436.59;4981310;28;20432;-74
2022/04/06 05:22:50;;;;;;;27.42;15.50;;;;;;;11.38;55.41;99430.13;4976938;28;20061;-74
2022/04/06 05:25:17;;;;;;;26.77;15.23;;;;;;;11.44;55.00;99421.28;4980769;28;20123;-74
2022/04/06 05:27:48;;;;;;;24.08;14.40;;;;;;;11.62;54.77;99417.25;4981615;28;20129;-74
2022/04/06 05:30:16;;;;;;;26.42;15.73;;;;;;;11.30;55.39;99422.22;4989109;28;20062;-74
2022/04/06 05:32:43;;;;;;;26.17;14.77;;;;;;;10.81;56.42;99416.91;4993576;28;20070;-74
2022/04/06 05:35:11;;;;;;;25.50;16.00;;;;;;;11.26;55.48;99420.97;4992873;28;20046;-74
2022/04/06 05:37:38;;;;;;;32.15;16.42;;;;;;;11.37;55.12;99415.03;4990215;28;20133;-74
2022/04/06 05:40:06;;;;;;;31.55;15.50;;;;;;;11.31;55.20;99423.91;4991635;28;20129;-74
2022/04/06 05:42:36;;;;;;;22.15;14.35;;;;;;;11.43;54.98;99426.84;4992037;28;20046;-74
2022/04/06 05:45:04;;;;;;;31.80;14.82;;;;;;;11.63;54.46;99432.34;4996232;28;20053;-74
2022/04/06 05:47:31;;;;;;;25.25;15.52;;;;;;;11.64;54.33;99429.44;4993817;28;20055;-74
2022/04/06 05:49:57;;;;;;;26.95;14.52;;;;;;;11.10;55.94;99429.31;4992282;28;20133;-74
2022/04/06 05:52:24;;;;;;;24.73;14.55;;;;;;;11.46;55.48;99429.97;4992361;28;20062;-74
2022/04/06 05:54:51;;;;;;;21.85;14.23;;;;;;;12.16;53.30;99432.59;4993020;28;20046;-74
2022/04/06 05:57:18;;;;;;;24.52;15.27;;;;;;;11.87;53.63;99429.19;4994861;28;20077;-74
2022/04/06 05:59:45;;;;;;;32.53;16.17;;;;;;;11.82;53.81;99436.19;4994743;28;20054;-74
2022/04/06 06:02:12;;;;;;;23.38;15.43;;;;;;;11.53;54.89;99437.25;4995682;28;20046;-74
2022/04/06 06:04:39;;;;;;;26.40;15.82;;;;;;;11.26;55.80;99441.63;4997326;28;20137;-74
2022/04/06 06:07:07;;;;;;;24.88;15.70;;;;;;;11.40;55.45;99446.03;4991576;28;20046;-74
2022/04/06 06:09:35;;;;;;;26.58;14.90;;;;;;;11.09;56.37;99449.94;4995533;28;20073;-74
2022/04/06 06:12:03;;;;;;;25.80;15.63;;;;;;;11.67;55.28;99449.75;4992577;28;20446;-74
2022/04/06 06:14:30;;;;;;;33.25;17.67;;;;;;;11.34;56.08;99458.38;4990862;28;20108;-74
2022/04/06 06:16:58;;;;;;;30.70;17.52;;;;;;;11.53;56.37;99446.13;4992040;28;20096;-74
2022/04/06 06:19:26;;;;;;;30.95;17.55;;;;;;;11.40;55.81;99449.56;4993210;28;20391;-74
2022/04/06 06:21:53;;;;;;;32.22;18.05;;;;;;;10.91;57.39;99444.25;4992103;28;20178;-74
2022/04/06 06:24:21;;;;;;;31.58;19.13;;;;;;;11.06;57.27;99442.28;4994056;28;20081;-74
2022/04/06 06:26:48;;;;;;;40.03;19.55;;;;;;;10.83;57.90;99439.84;4990330;28;20398;-74
2022/04/06 06:29:15;;;;;;;33.42;19.27;;;;;;;11.21;56.98;99450.25;4992432;28;20046;-74
2022/04/06 06:31:41;;;;;;;40.58;20.65;;;;;;;11.38;56.68;99440.06;4991549;28;20490;-74
2022/04/06 06:34:08;;;;;;;38.42;20.55;;;;;;;10.89;57.94;99435.53;4989744;28;20100;-74
2022/04/06 06:36:35;;;;;;;41.72;21.13;;;;;;;11.23;57.41;99430.22;4989480;28;20050;-74
2022/04/06 06:39:02;;;;;;;41.70;22.65;;;;;;;11.45;56.61;99427.50;4994784;28;20065;-74
2022/04/06 06:41:29;;;;;;;38.03;21.83;;;;;;;10.82;58.96;99424.75;4993482;28;20081;-74
2022/04/06 06:43:56;;;;;;;44.92;24.65;;;;;;;11.60;56.80;99427.38;4991337;28;20125;-74
2022/04/06 06:46:22;;;;;;;36.05;23.58;;;;;;;11.26;57.79;99431.69;4991566;28;20129;-74
2022/04/06 06:48:51;;;;;;;49.55;24.10;;;;;;;11.59;56.28;99431.09;4991870;28;20054;-74
2022/04/06 06:51:18;;;;;;;40.50;23.70;;;;;;;10.97;57.76;99438.94;4979932;28;20130;-74
2022/04/06 06:53:46;;;;;;;42.42;23.17;;;;;;;11.59;55.69;99423.84;4975348;28;20065;-74
2022/04/06 06:56:13;;;;;;;39.47;22.88;;;;;;;11.62;55.90;99427.97;4979639;28;20070;-74
2022/04/06 06:58:40;;;;;;;41.15;24.15;;;;;;;11.54;55.94;99430.84;4975340;28;20074;-74
2022/04/06 07:01:06;;;;;;;46.92;24.02;;;;;;;11.43;55.67;99437.59;4980212;28;20134;-73
2022/04/06 07:03:33;;;;;;;40.30;23.80;;;;;;;12.27;53.57;99428.47;4976407;28;20047;-74
2022/04/06 07:05:59;;;;;;;37.90;23.67;;;;;;;11.62;55.85;99425.28;4977989;28;20051;-75
2022/04/06 07:08:26;;;;;;;42.22;25.48;;;;;;;11.82;55.35;99428.94;4979985;28;20483;-75
2022/04/06 07:10:53;;;;;;;44.92;24.27;;;;;;;11.23;56.38;99432.09;4977225;28;20137;-75
2022/04/06 07:13:19;;;;;;;40.30;23.98;;;;;;;11.65;54.35;99432.97;4981124;28;20133;-74
2022/04/06 07:15:47;;;;;;;44.75;25.27;;;;;;;11.94;54.23;99418.47;4975847;28;20047;-75
2022/04/06 07:18:14;;;;;;;36.80;23.63;;;;;;;12.03;53.71;99427.16;4979817;28;20121;-75
2022/04/06 07:20:41;;;;;;;41.58;24.30;;;;;;;12.03;53.93;99419.09;4976656;28;20125;-74
2022/04/06 07:23:07;;;;;;;34.28;21.50;;;;;;;11.72;54.49;99415.03;4983963;28;20057;-75
2022/04/06 07:25:34;;;;;;;36.88;21.08;;;;;;;12.40;53.24;99423.16;4978221;28;20074;-74
2022/04/06 07:28:02;;;;;;;35.10;20.70;;;;;;;11.86;53.70;99419.47;4978461;28;20134;-75
2022/04/06 07:30:30;;;;;;;38.38;20.88;;;;;;;12.34;52.27;99410.50;4980512;28;20125;-75
2022/04/06 07:32:59;;;;;;;32.50;19.42;;;;;;;12.50;51.94;99410.13;4976929;28;20134;-75
2022/04/06 07:35:26;;;;;;;37.95;19.88;;;;;;;12.53;51.96;99400.81;4978329;28;20067;-75
2022/04/06 07:37:53;;;;;;;33.03;17.92;;;;;;;11.87;53.27;99396.94;4980027;28;20077;-75
2022/04/06 07:40:21;;;;;;;36.63;17.98;;;;;;;11.62;53.14;99390.38;4976464;28;20047;-75
2022/04/06 07:42:52;;;;;;;35.83;18.10;;;;;;;12.35;51.28;99396.03;4979293;28;20402;-74
2022/04/06 07:45:21;;;;;;;29.15;16.83;;;;;;;12.36;51.83;99398.53;4981499;28;20054;-75
2022/04/06 07:47:49;;;;;;;31.88;15.95;;;;;;;12.29;51.87;99394.16;4981688;28;20047;-75
2022/04/06 07:50:18;;;;;;;32.50;15.95;;;;;;;12.88;49.88;99398.78;4980198;28;20514;-75
2022/04/06 07:52:45;;;;;;;29.10;15.88;;;;;;;12.94;49.58;99405.19;4982696;28;20081;-75
2022/04/06 07:55:12;;;;;;;35.08;14.10;;;;;;;12.84;49.27;99400.25;4980435;28;20061;-75
2022/04/06 07:57:40;;;;;;;27.88;13.77;;;;;;;13.40;47.68;99402.47;4983623;28;20118;-75
2022/04/06 08:00:11;;;;;;;31.38;13.77;;;;;;;12.91;49.49;99394.88;4981451;28;20101;-74
2022/04/06 08:02:38;;;;;;;27.83;13.13;;;;;;;12.83;48.56;99396.75;4982078;28;20046;-75
2022/04/06 08:05:05;;;;;;;25.50;13.13;;;;;;;13.26;48.49;99393.56;4980102;28;20105;-75
2022/04/06 08:07:32;;;;;;;22.48;12.07;;;;;;;13.38;47.55;99399.13;4983986;28;20126;-75
2022/04/06 08:09:59;;;;;;;28.38;12.25;;;;;;;13.26;48.12;99398.97;4980427;28;20440;-75
2022/04/06 08:12:25;;;;;;;25.65;11.85;;;;;;;13.50;47.19;99386.69;4981434;28;20134;-75
2022/04/06 08:14:52;;;;;;;22.67;11.60;;;;;;;13.44;46.83;99397.47;4984145;28;20125;-75
2022/04/06 08:17:19;;;;;;;26.25;10.80;;;;;;;13.82;46.14;99393.00;4995079;28;20133;-75
2022/04/06 08:19:45;;;;;;;24.23;11.50;;;;;;;13.84;46.00;99403.59;4994465;28;20081;-75
2022/04/06 08:22:12;;;;;;;21.15;9.98;;;;;;;13.58;45.38;99388.31;4994718;28;20074;-74
2022/04/06 08:24:38;;;;;;;26.42;10.57;;;;;;;13.91;44.52;99392.75;4988325;28;20054;-75
2022/04/06 08:27:05;;;;;;;19.75;9.70;;;;;;;13.62;45.02;99388.72;4982029;28;20559;-75
2022/04/06 08:29:31;;;;;;;19.60;8.82;;;;;;;13.22;45.30;99392.34;4980825;28;20098;-74
2022/04/06 08:31:58;;;;;;;21.67;10.18;;;;;;;14.02;44.07;99398.31;4983260;28;20440;-74
2022/04/06 08:34:25;;;;;;;21.67;10.45;;;;;;;13.88;44.25;99404.81;4972481;28;20047;-74
2022/04/06 08:36:51;;;;;;;22.35;10.25;;;;;;;13.09;45.57;99405.81;4981938;28;20130;-75
2022/04/06 08:39:18;;;;;;;18.70;8.93;;;;;;;12.84;46.20;99411.84;4973295;28;20136;-75
2022/04/06 08:41:54;;;;;;;25.23;9.55;;;;;;;13.41;44.73;99412.19;4982007;28;20069;-75
2022/04/06 08:44:21;;;;;;;26.13;9.30;;;;;;;12.95;45.32;99413.09;4974029;28;20129;-75
2022/04/06 08:46:50;;;;;;;25.25;9.93;;;;;;;13.67;44.69;99407.78;4982254;28;20139;-75
2022/04/06 08:49:16;;;;;;;18.58;9.30;;;;;;;13.26;45.28;99406.22;4983186;28;20090;-75
2022/04/06 08:51:45;;;;;;;21.95;9.00;;;;;;;13.33;44.80;99405.16;4981655;28;20161;-75
2022/04/06 08:54:12;;;;;;;18.27;9.25;;;;;;;13.10;45.30;99412.84;4979574;28;20129;-75
2022/04/06 08:56:39;;;;;;;18.88;8.43;;;;;;;13.24;45.05;99400.19;4984964;28;20129;-75
2022/04/06 08:59:08;;;;;;;20.20;8.45;;;;;;;13.96;43.40;99404.56;4979808;28;20557;-75
2022/04/06 09:01:35;;;;;;;27.77;8.93;;;;;;;13.54;44.15;99398.69;4979477;28;20470;-76
2022/04/06 09:04:02;;;;;;;22.35;8.60;;;;;;;13.73;43.84;99388.88;4980827;28;20047;-75
2022/04/06 09:06:48;;;;;;;22.88;8.70;;;;;;;13.48;43.94;99394.13;4983425;28;20574;-76
2022/04/06 09:09:24;;;;;;;17.60;8.02;;;;;;;13.78;42.97;99399.06;4978420;28;20133;-75
2022/04/06 09:11:50;;;;;;;20.85;8.43;;;;;;;13.64;42.93;99394.72;4983325;28;20043;-75
2022/04/06 09:14:30;;;;;;;21.60;7.90;;;;;;;13.68;42.95;99399.47;4979668;28;20050;-75
2022/04/06 09:17:04;;;;;;;17.23;7.63;;;;;;;13.42;42.76;99391.47;4982958;28;20105;-75
2022/04/06 09:19:45;;;;;;;20.25;7.68;;;;;;;14.09;41.67;99379.41;4980057;28;20143;-75
2022/04/06 09:22:12;;;;;;;20.45;8.35;;;;;;;13.57;42.74;99386.66;4980976;28;20046;-75
2022/04/06 09:24:38;;;;;;;15.60;7.43;;;;;;;14.00;41.53;99386.91;4978526;28;20078;-75
2022/04/06 09:27:05;;;;;;;19.33;7.88;;;;;;;14.02;41.42;99389.41;4980458;28;20134;-75
2022/04/06 09:29:34;;;;;;;21.75;8.48;;;;;;;13.83;41.67;99383.88;4982874;28;20522;-75
2022/04/06 09:32:10;;;;;;;18.48;7.90;;;;;;;14.39;40.21;99373.41;4982259;28;20126;-75
2022/04/06 09:34:57;;;;;;;23.85;9.55;;;;;;;14.93;39.42;99372.81;4978564;28;20043;-75
2022/04/06 09:37:25;;;;;;;16.23;7.97;;;;;;;14.22;40.83;99357.75;4981620;28;20192;-75
2022/04/06 09:39:53;;;;;;;15.90;7.78;;;;;;;13.69;41.14;99374.16;4976125;28;20055;-75
2022/04/06 09:42:27;;;;;;;20.33;7.40;;;;;;;13.96;40.87;99374.09;4982087;28;20100;-75
2022/04/06 09:47:51;;;;;;;21.25;8.40;;;;;;;13.68;41.64;99371.69;4977799;28;20070;-75
2022/04/06 09:50:20;;;;;;;19.52;8.23;;;;;;;13.66;41.85;99363.81;4978825;28;20062;-75
2022/04/06 09:52:51;;;;;;;19.35;9.30;;;;;;;13.52;41.86;99367.59;4978466;28;20058;-75
2022/04/06 09:55:19;;;;;;;15.73;8.93;;;;;;;12.84;43.51;99371.47;4981811;28;20046;-76
2022/04/06 09:57:47;;;;;;;23.63;9.73;;;;;;;13.77;41.55;99349.72;4978266;28;20562;-76
2022/04/06 10:00:17;;;;;;;24.17;8.93;;;;;;;13.76;41.42;99366.91;4979146;28;20062;-75
2022/04/06 10:02:50;;;;;;;23.13;9.60;;;;;;;13.88;41.33;99361.69;4981188;28;20161;-75
2022/04/06 10:05:19;;;;;;;28.20;10.63;;;;;;;14.44;40.47;99360.09;4979203;28;20098;-75
2022/04/06 10:07:48;;;;;;;17.10;8.75;;;;;;;13.99;41.26;99368.25;4978179;28;20051;-74
2022/04/06 10:10:14;;;;;;;23.35;10.40;;;;;;;13.80;41.77;99365.47;4980146;28;20042;-75
2022/04/06 10:12:41;;;;;;;22.70;9.10;;;;;;;13.80;41.64;99357.38;4978794;28;20069;-75
2022/04/06 10:15:28;;;;;;;18.63;9.32;;;;;;;14.29;40.74;99350.44;4980506;28;20050;-76
2022/04/06 10:17:54;;;;;;;18.70;8.45;;;;;;;14.15;41.58;99353.44;4980460;28;20078;-75
2022/04/06 10:20:28;;;;;;;17.27;8.75;;;;;;;13.46;41.94;99365.78;4980026;28;20046;-75
2022/04/06 10:23:09;;;;;;;17.40;9.60;;;;;;;13.04;42.61;99349.91;4981315;28;20086;-76
2022/04/06 10:25:58;;;;;;;21.50;9.32;;;;;;;13.22;42.13;99361.91;4977936;28;20053;-76
2022/04/06 10:28:25;;;;;;;24.67;9.30;;;;;;;12.80;43.03;99358.63;4981390;28;20073;-75
2022/04/06 10:31:22;;;;;;;22.67;9.13;;;;;;;13.14;42.34;99360.22;4978917;28;20053;-75
2022/04/06 10:33:58;;;;;;;20.13;7.57;;;;;;;13.64;41.36;99355.13;4978210;28;20113;-76
2022/04/06 10:36:30;;;;;;;24.08;9.25;;;;;;;13.55;41.27;99346.44;4980470;28;20125;-75
2022/04/06 10:39:10;;;;;;;;;;;;;;;13.60;41.27;99348.50;4977150;28;20050;-76
2022/04/06 10:41:42;;;;;;;15.90;8.07;;;;;;;13.40;41.79;99347.75;4980602;28;19948;-75
2022/04/06 10:44:50;;;;;;;14.88;7.28;;;;;;;13.38;41.18;99339.03;4979264;28;20113;-76
2022/04/06 10:47:17;;;;;;;;;;;;;;;13.88;40.44;99342.81;4989661;28;20081;-75
2022/04/06 10:50:13;;;;;;;22.77;7.68;;;;;;;14.03;39.86;99347.91;4989201;28;19922;-75
2022/04/06 10:52:40;;;;;;;15.23;7.75;;;;;;;14.55;39.28;99329.69;4989725;28;20423;-75
2022/04/06 10:55:23;;;;;;;14.93;7.40;;;;;;;14.80;38.05;99328.91;4992669;28;20418;-75
2022/04/06 10:58:03;;;;;;;16.95;7.35;;;;;;;15.18;37.23;99345.75;4989242;28;20196;-75
2022/04/06 11:00:31;;;;;;;18.15;6.82;;;;;;;14.69;38.02;99352.00;4990445;28;20503;-75
2022/04/06 11:03:18;;;;;;;15.80;6.72;;;;;;;14.67;38.02;99340.59;4989705;28;20137;-75
2022/04/06 11:05:52;;;;;;;16.15;7.22;;;;;;;13.85;39.55;99345.13;4976859;28;20133;-75
2022/04/06 11:11:45;;;;;;;14.38;6.88;;;;;;;13.93;39.11;99342.16;4978087;28;20472;-75
2022/04/06 11:14:24;;;;;;;20.20;6.72;;;;;;;13.72;39.89;99337.88;4977705;28;20054;-75
2022/04/06 11:16:52;;;;;;;13.30;6.28;;;;;;;13.77;39.73;99338.94;4970126;28;20058;-76
2022/04/06 11:19:19;;;;;;;15.18;6.78;;;;;;;13.79;39.81;99336.00;4970387;28;20050;-75
2022/04/06 11:21:54;;;;;;;17.00;7.38;;;;;;;13.93;39.84;99340.28;4975195;28;20051;-75
2022/04/06 11:24:23;;;;;;;14.10;6.60;;;;;;;14.16;39.40;99342.44;4968716;28;20081;-75
2022/04/06 11:26:51;;;;;;;20.13;8.23;;;;;;;14.20;39.33;99332.88;4976751;28;20077;-76
2022/04/06 11:29:17;;;;;;;15.88;7.13;;;;;;;13.97;39.84;99338.81;4975959;28;20475;-75
2022/04/06 11:32:06;;;;;;;13.40;6.25;;;;;;;13.82;40.07;99341.78;4976100;28;20070;-75
2022/04/06 11:34:37;;;;;;;17.70;7.22;;;;;;;13.88;40.32;99342.00;4980976;28;20129;-77
2022/04/06 11:37:06;;;;;;;17.23;7.07;;;;;;;13.74;40.53;99338.50;4978498;28;20129;-75
2022/04/06 11:39:33;;;;;;;17.17;7.47;;;;;;;13.15;41.93;99343.06;4989874;28;20076;-76
2022/04/06 11:42:01;;;;;;;17.42;7.50;;;;;;;13.10;41.63;99349.06;4986710;28;20074;-76